sensor_id;sensor_type;location;lat;lon;timestamp;temperature;humidity
45807;DHT22;31507;51.494;7.518;2023-03-31T00:01:21;11.00;99.90
45807;DHT22;31507;51.494;7.518;2023-03-31T00:03:48;11.00;99.90
45807;DHT22;31507;51.494;7.518;2023-03-31T00:06:14;11.00;99.90
45807;DHT22;31507;51.494;7.518;2023-03-31T00:08:44;10.90;99.90
45807;DHT22;31507;51.494;7.518;2023-03-31T00:11:10;10.90;99.90
45807;DHT22;31507;51.494;7.518;2023-03-31T00:13:37;10.80;99.90
45807;DHT22;31507;51.494;7.518;2023-03-31T00:16:06;10.70;99.90
45807;DHT22;31507;51.494;7.518;2023-03-31T00:18:33;10.70;99.90
45807;DHT22;31507;51.494;7.518;2023-03-31T00:21:15;10.70;99.90
45807;DHT22;31507;51.494;7.518;2023-03-31T00:23:53;10.60;99.90
45807;DHT22;31507;51.494;7.518;2023-03-31T00:26:20;10.60;99.90
45807;DHT22;31507;51.494;7.518;2023-03-31T00:28:49;10.60;99.90
45807;DHT22;31507;51.494;7.518;2023-03-31T00:31:15;10.60;99.90
45807;DHT22;31507;51.494;7.518;2023-03-31T00:33:41;10.50;99.90
45807;DHT22;31507;51.494;7.518;2023-03-31T00:36:07;10.50;99.90
45807;DHT22;31507;51.494;7.518;2023-03-31T00:38:34;10.50;99.90
45807;DHT22;31507;51.494;7.518;2023-03-31T00:41:00;10.50;99.90
45807;DHT22;31507;51.494;7.518;2023-03-31T00:43:36;10.50;99.90
45807;DHT22;31507;51.494;7.518;2023-03-31T00:48:32;10.40;99.90
45807;DHT22;31507;51.494;7.518;2023-03-31T00:50:59;10.30;99.90
45807;DHT22;31507;51.494;7.518;2023-03-31T00:53:29;10.30;99.90
45807;DHT22;31507;51.494;7.518;2023-03-31T00:56:00;10.30;99.90
45807;DHT22;31507;51.494;7.518;2023-03-31T00:58:27;10.30;99.90
45807;DHT22;31507;51.494;7.518;2023-03-31T01:00:54;10.30;99.90
45807;DHT22;31507;51.494;7.518;2023-03-31T01:03:20;10.30;99.90
45807;DHT22;31507;51.494;7.518;2023-03-31T01:05:50;10.30;99.90
45807;DHT22;31507;51.494;7.518;2023-03-31T01:08:19;10.30;99.90
45807;DHT22;31507;51.494;7.518;2023-03-31T01:10:52;10.40;99.90
45807;DHT22;31507;51.494;7.518;2023-03-31T01:13:19;10.40;99.90
45807;DHT22;31507;51.494;7.518;2023-03-31T01:15:46;10.50;99.90
45807;DHT22;31507;51.494;7.518;2023-03-31T01:18:12;10.50;99.90
45807;DHT22;31507;51.494;7.518;2023-03-31T01:37:01;10.30;99.90
45807;DHT22;31507;51.494;7.518;2023-03-31T01:39:59;10.20;99.90
45807;DHT22;31507;51.494;7.518;2023-03-31T01:48:01;10.10;99.90
45807;DHT22;31507;51.494;7.518;2023-03-31T01:50:35;10.10;99.90
45807;DHT22;31507;51.494;7.518;2023-03-31T01:58:39;9.90;99.90
45807;DHT22;31507;51.494;7.518;2023-03-31T02:01:36;9.90;99.90
45807;DHT22;31507;51.494;7.518;2023-03-31T02:04:08;9.90;99.90
45807;DHT22;31507;51.494;7.518;2023-03-31T02:06:37;9.80;99.90
45807;DHT22;31507;51.494;7.518;2023-03-31T02:09:09;9.80;99.90
45807;DHT22;31507;51.494;7.518;2023-03-31T02:11:37;9.80;99.90
45807;DHT22;31507;51.494;7.518;2023-03-31T02:14:08;9.70;99.90
45807;DHT22;31507;51.494;7.518;2023-03-31T02:16:36;9.70;99.90
45807;DHT22;31507;51.494;7.518;2023-03-31T02:19:07;9.70;99.90
45807;DHT22;31507;51.494;7.518;2023-03-31T02:21:35;9.70;99.90
45807;DHT22;31507;51.494;7.518;2023-03-31T02:24:06;9.70;99.90
45807;DHT22;31507;51.494;7.518;2023-03-31T02:26:39;9.60;99.90
45807;DHT22;31507;51.494;7.518;2023-03-31T02:29:06;9.60;99.90
45807;DHT22;31507;51.494;7.518;2023-03-31T02:31:40;9.70;99.90
45807;DHT22;31507;51.494;7.518;2023-03-31T02:34:07;9.70;99.90
45807;DHT22;31507;51.494;7.518;2023-03-31T02:36:34;9.70;99.90
45807;DHT22;31507;51.494;7.518;2023-03-31T02:39:05;9.70;99.90
45807;DHT22;31507;51.494;7.518;2023-03-31T02:41:32;9.70;99.90
45807;DHT22;31507;51.494;7.518;2023-03-31T02:43:57;9.70;99.90
45807;DHT22;31507;51.494;7.518;2023-03-31T02:46:24;9.70;99.90
45807;DHT22;31507;51.494;7.518;2023-03-31T02:48:53;9.70;99.90
45807;DHT22;31507;51.494;7.518;2023-03-31T02:54:32;9.70;99.90
45807;DHT22;31507;51.494;7.518;2023-03-31T03:00:02;9.70;99.90
45807;DHT22;31507;51.494;7.518;2023-03-31T03:05:27;9.70;99.90
45807;DHT22;31507;51.494;7.518;2023-03-31T03:08:20;9.70;99.90
45807;DHT22;31507;51.494;7.518;2023-03-31T03:13:43;9.70;99.90
45807;DHT22;31507;51.494;7.518;2023-03-31T03:18:44;9.60;99.90
45807;DHT22;31507;51.494;7.518;2023-03-31T03:21:10;9.60;99.90
45807;DHT22;31507;51.494;7.518;2023-03-31T03:23:35;9.70;99.90
45807;DHT22;31507;51.494;7.518;2023-03-31T03:26:01;9.70;99.90
45807;DHT22;31507;51.494;7.518;2023-03-31T03:28:27;9.70;99.90
45807;DHT22;31507;51.494;7.518;2023-03-31T03:30:52;9.70;99.90
45807;DHT22;31507;51.494;7.518;2023-03-31T03:33:18;9.70;99.90
45807;DHT22;31507;51.494;7.518;2023-03-31T03:35:43;9.70;99.90
45807;DHT22;31507;51.494;7.518;2023-03-31T03:38:09;9.70;99.90
45807;DHT22;31507;51.494;7.518;2023-03-31T03:40:35;9.70;99.90
45807;DHT22;31507;51.494;7.518;2023-03-31T03:43:00;9.70;99.90
45807;DHT22;31507;51.494;7.518;2023-03-31T03:45:26;9.70;99.90
45807;DHT22;31507;51.494;7.518;2023-03-31T03:47:51;9.70;99.90
45807;DHT22;31507;51.494;7.518;2023-03-31T03:50:17;9.70;99.90
45807;DHT22;31507;51.494;7.518;2023-03-31T03:52:43;9.70;99.90
45807;DHT22;31507;51.494;7.518;2023-03-31T03:55:08;9.60;99.90
45807;DHT22;31507;51.494;7.518;2023-03-31T03:57:36;9.60;99.90
45807;DHT22;31507;51.494;7.518;2023-03-31T04:00:01;9.60;99.90
45807;DHT22;31507;51.494;7.518;2023-03-31T04:02:32;9.60;99.90
45807;DHT22;31507;51.494;7.518;2023-03-31T04:04:57;9.60;99.90
45807;DHT22;31507;51.494;7.518;2023-03-31T04:07:23;9.60;99.90
45807;DHT22;31507;51.494;7.518;2023-03-31T04:09:49;9.60;99.90
45807;DHT22;31507;51.494;7.518;2023-03-31T04:12:14;9.70;99.90
45807;DHT22;31507;51.494;7.518;2023-03-31T04:14:40;9.70;99.90
45807;DHT22;31507;51.494;7.518;2023-03-31T04:17:05;9.70;99.90
45807;DHT22;31507;51.494;7.518;2023-03-31T04:19:31;9.70;99.90
45807;DHT22;31507;51.494;7.518;2023-03-31T04:21:57;9.70;99.90
45807;DHT22;31507;51.494;7.518;2023-03-31T04:24:27;9.70;99.90
45807;DHT22;31507;51.494;7.518;2023-03-31T04:26:58;9.70;99.90
45807;DHT22;31507;51.494;7.518;2023-03-31T04:29:25;9.60;99.90
45807;DHT22;31507;51.494;7.518;2023-03-31T04:31:55;9.60;99.90
45807;DHT22;31507;51.494;7.518;2023-03-31T04:34:24;9.60;99.90
45807;DHT22;31507;51.494;7.518;2023-03-31T04:36:59;9.60;99.90
45807;DHT22;31507;51.494;7.518;2023-03-31T04:39:27;9.60;99.90
45807;DHT22;31507;51.494;7.518;2023-03-31T04:41:56;9.50;99.90
45807;DHT22;31507;51.494;7.518;2023-03-31T04:44:22;9.50;99.90
45807;DHT22;31507;51.494;7.518;2023-03-31T04:46:48;9.50;99.90
45807;DHT22;31507;51.494;7.518;2023-03-31T04:49:14;9.50;99.90
45807;DHT22;31507;51.494;7.518;2023-03-31T04:51:39;9.60;99.90
45807;DHT22;31507;51.494;7.518;2023-03-31T04:54:05;9.60;99.90
45807;DHT22;31507;51.494;7.518;2023-03-31T04:56:31;9.60;99.90
45807;DHT22;31507;51.494;7.518;2023-03-31T04:58:56;9.60;99.90
45807;DHT22;31507;51.494;7.518;2023-03-31T05:01:22;9.70;99.90
45807;DHT22;31507;51.494;7.518;2023-03-31T05:03:48;9.60;99.90
45807;DHT22;31507;51.494;7.518;2023-03-31T05:06:14;9.60;99.90
45807;DHT22;31507;51.494;7.518;2023-03-31T05:08:40;9.60;99.90
45807;DHT22;31507;51.494;7.518;2023-03-31T05:11:06;9.60;99.90
45807;DHT22;31507;51.494;7.518;2023-03-31T05:13:32;9.60;99.90
45807;DHT22;31507;51.494;7.518;2023-03-31T05:15:58;9.60;99.90
45807;DHT22;31507;51.494;7.518;2023-03-31T05:18:29;9.60;99.90
45807;DHT22;31507;51.494;7.518;2023-03-31T05:20:55;9.60;99.90
45807;DHT22;31507;51.494;7.518;2023-03-31T05:23:21;9.50;99.90
45807;DHT22;31507;51.494;7.518;2023-03-31T05:25:46;9.50;99.90
45807;DHT22;31507;51.494;7.518;2023-03-31T05:28:12;9.50;99.90
45807;DHT22;31507;51.494;7.518;2023-03-31T05:30:38;9.50;99.90
45807;DHT22;31507;51.494;7.518;2023-03-31T05:33:03;9.50;99.90
45807;DHT22;31507;51.494;7.518;2023-03-31T05:35:29;9.50;99.90
45807;DHT22;31507;51.494;7.518;2023-03-31T05:37:54;9.50;99.90
45807;DHT22;31507;51.494;7.518;2023-03-31T05:40:20;9.40;99.90
45807;DHT22;31507;51.494;7.518;2023-03-31T05:42:46;9.40;99.90
45807;DHT22;31507;51.494;7.518;2023-03-31T05:45:11;9.40;99.90
45807;DHT22;31507;51.494;7.518;2023-03-31T05:47:37;9.40;99.90
45807;DHT22;31507;51.494;7.518;2023-03-31T05:50:03;9.30;99.90
45807;DHT22;31507;51.494;7.518;2023-03-31T05:52:34;9.30;99.90
45807;DHT22;31507;51.494;7.518;2023-03-31T05:55:02;9.30;99.90
45807;DHT22;31507;51.494;7.518;2023-03-31T05:57:28;9.40;99.90
45807;DHT22;31507;51.494;7.518;2023-03-31T05:59:54;9.40;99.90
45807;DHT22;31507;51.494;7.518;2023-03-31T06:02:20;9.40;99.90
45807;DHT22;31507;51.494;7.518;2023-03-31T06:04:46;9.40;99.90
45807;DHT22;31507;51.494;7.518;2023-03-31T06:07:11;9.40;99.90
45807;DHT22;31507;51.494;7.518;2023-03-31T06:09:37;9.50;99.90
45807;DHT22;31507;51.494;7.518;2023-03-31T06:12:03;9.60;99.90
45807;DHT22;31507;51.494;7.518;2023-03-31T06:14:29;9.50;99.90
45807;DHT22;31507;51.494;7.518;2023-03-31T06:16:55;9.50;99.90
45807;DHT22;31507;51.494;7.518;2023-03-31T06:19:20;9.60;99.90
45807;DHT22;31507;51.494;7.518;2023-03-31T06:21:46;9.60;99.90
45807;DHT22;31507;51.494;7.518;2023-03-31T06:24:12;9.60;99.90
45807;DHT22;31507;51.494;7.518;2023-03-31T06:26:38;9.60;99.90
45807;DHT22;31507;51.494;7.518;2023-03-31T06:29:03;9.60;99.90
45807;DHT22;31507;51.494;7.518;2023-03-31T06:31:29;9.70;99.90
45807;DHT22;31507;51.494;7.518;2023-03-31T06:33:54;9.70;99.90
45807;DHT22;31507;51.494;7.518;2023-03-31T06:36:21;9.80;99.90
45807;DHT22;31507;51.494;7.518;2023-03-31T06:38:48;9.70;99.90
45807;DHT22;31507;51.494;7.518;2023-03-31T06:41:15;9.70;99.90
45807;DHT22;31507;51.494;7.518;2023-03-31T06:43:42;9.70;99.90
45807;DHT22;31507;51.494;7.518;2023-03-31T06:46:08;9.70;99.90
45807;DHT22;31507;51.494;7.518;2023-03-31T06:48:34;9.70;99.90
45807;DHT22;31507;51.494;7.518;2023-03-31T06:51:01;9.80;99.90
45807;DHT22;31507;51.494;7.518;2023-03-31T06:53:28;9.80;99.90
45807;DHT22;31507;51.494;7.518;2023-03-31T06:55:53;9.70;99.90
45807;DHT22;31507;51.494;7.518;2023-03-31T06:58:19;9.60;99.90
45807;DHT22;31507;51.494;7.518;2023-03-31T07:00:45;9.60;99.90
45807;DHT22;31507;51.494;7.518;2023-03-31T07:03:12;9.60;99.90
45807;DHT22;31507;51.494;7.518;2023-03-31T07:05:38;9.60;99.90
45807;DHT22;31507;51.494;7.518;2023-03-31T07:08:04;9.60;99.90
45807;DHT22;31507;51.494;7.518;2023-03-31T07:10:30;9.50;99.90
45807;DHT22;31507;51.494;7.518;2023-03-31T07:12:57;9.50;99.90
45807;DHT22;31507;51.494;7.518;2023-03-31T07:15:23;9.50;99.90
45807;DHT22;31507;51.494;7.518;2023-03-31T07:17:49;9.50;99.90
45807;DHT22;31507;51.494;7.518;2023-03-31T07:20:18;9.50;99.90
45807;DHT22;31507;51.494;7.518;2023-03-31T07:22:47;9.40;99.90
45807;DHT22;31507;51.494;7.518;2023-03-31T07:25:14;9.40;99.90
45807;DHT22;31507;51.494;7.518;2023-03-31T07:27:40;9.40;99.90
45807;DHT22;31507;51.494;7.518;2023-03-31T07:30:10;9.40;99.90
45807;DHT22;31507;51.494;7.518;2023-03-31T07:32:36;9.40;99.90
45807;DHT22;31507;51.494;7.518;2023-03-31T07:35:09;9.40;99.90
45807;DHT22;31507;51.494;7.518;2023-03-31T07:37:41;9.40;99.90
45807;DHT22;31507;51.494;7.518;2023-03-31T07:40:09;9.40;99.90
45807;DHT22;31507;51.494;7.518;2023-03-31T07:42:36;9.40;99.90
45807;DHT22;31507;51.494;7.518;2023-03-31T07:45:02;9.30;99.90
45807;DHT22;31507;51.494;7.518;2023-03-31T07:47:31;9.30;99.90
45807;DHT22;31507;51.494;7.518;2023-03-31T07:49:57;9.30;99.90
45807;DHT22;31507;51.494;7.518;2023-03-31T07:52:22;9.30;99.90
45807;DHT22;31507;51.494;7.518;2023-03-31T07:54:48;9.30;99.90
45807;DHT22;31507;51.494;7.518;2023-03-31T07:57:14;9.30;99.90
45807;DHT22;31507;51.494;7.518;2023-03-31T07:59:42;9.30;99.90
45807;DHT22;31507;51.494;7.518;2023-03-31T08:02:14;9.30;99.90
45807;DHT22;31507;51.494;7.518;2023-03-31T08:04:41;9.40;99.90
45807;DHT22;31507;51.494;7.518;2023-03-31T08:07:07;9.40;99.90
45807;DHT22;31507;51.494;7.518;2023-03-31T08:09:33;9.40;99.90
45807;DHT22;31507;51.494;7.518;2023-03-31T08:11:59;9.50;99.90
45807;DHT22;31507;51.494;7.518;2023-03-31T08:14:24;9.50;99.90
45807;DHT22;31507;51.494;7.518;2023-03-31T08:16:50;9.50;99.90
45807;DHT22;31507;51.494;7.518;2023-03-31T08:19:17;9.60;99.90
45807;DHT22;31507;51.494;7.518;2023-03-31T08:21:43;9.60;99.90
45807;DHT22;31507;51.494;7.518;2023-03-31T08:24:09;9.70;99.90
45807;DHT22;31507;51.494;7.518;2023-03-31T08:26:34;9.70;99.90
45807;DHT22;31507;51.494;7.518;2023-03-31T08:29:00;9.80;99.90
45807;DHT22;31507;51.494;7.518;2023-03-31T08:31:26;9.90;99.90
45807;DHT22;31507;51.494;7.518;2023-03-31T08:33:53;9.90;99.90
45807;DHT22;31507;51.494;7.518;2023-03-31T08:36:19;10.10;99.90
45807;DHT22;31507;51.494;7.518;2023-03-31T08:38:45;10.10;99.90
45807;DHT22;31507;51.494;7.518;2023-03-31T08:41:34;10.20;99.90
45807;DHT22;31507;51.494;7.518;2023-03-31T08:47:22;10.40;99.90
45807;DHT22;31507;51.494;7.518;2023-03-31T08:49:58;10.50;99.90
45807;DHT22;31507;51.494;7.518;2023-03-31T08:52:33;10.50;99.90
45807;DHT22;31507;51.494;7.518;2023-03-31T08:55:05;10.60;99.90
45807;DHT22;31507;51.494;7.518;2023-03-31T08:57:59;10.70;99.90
45807;DHT22;31507;51.494;7.518;2023-03-31T09:00:31;10.70;99.90
45807;DHT22;31507;51.494;7.518;2023-03-31T09:03:04;10.70;99.90
45807;DHT22;31507;51.494;7.518;2023-03-31T09:05:55;10.80;99.90
45807;DHT22;31507;51.494;7.518;2023-03-31T09:08:37;10.90;99.90
45807;DHT22;31507;51.494;7.518;2023-03-31T09:16:47;11.00;99.90
45807;DHT22;31507;51.494;7.518;2023-03-31T09:22:28;11.10;99.90
45807;DHT22;31507;51.494;7.518;2023-03-31T09:25:26;11.20;99.90
45807;DHT22;31507;51.494;7.518;2023-03-31T09:27:54;11.30;99.90
45807;DHT22;31507;51.494;7.518;2023-03-31T09:30:27;11.40;99.90
45807;DHT22;31507;51.494;7.518;2023-03-31T09:33:18;11.50;99.90
45807;DHT22;31507;51.494;7.518;2023-03-31T09:35:46;11.60;99.90
45807;DHT22;31507;51.494;7.518;2023-03-31T09:38:13;11.70;99.90
45807;DHT22;31507;51.494;7.518;2023-03-31T09:40:41;11.70;99.90
45807;DHT22;31507;51.494;7.518;2023-03-31T09:43:28;11.70;99.90
45807;DHT22;31507;51.494;7.518;2023-03-31T09:45:55;11.80;99.90
45807;DHT22;31507;51.494;7.518;2023-03-31T09:48:27;11.90;99.90
45807;DHT22;31507;51.494;7.518;2023-03-31T09:50:58;11.90;99.90
45807;DHT22;31507;51.494;7.518;2023-03-31T09:53:49;11.80;99.90
45807;DHT22;31507;51.494;7.518;2023-03-31T09:59:17;11.90;99.90
45807;DHT22;31507;51.494;7.518;2023-03-31T10:01:44;12.00;99.90
45807;DHT22;31507;51.494;7.518;2023-03-31T10:04:25;12.00;99.90
45807;DHT22;31507;51.494;7.518;2023-03-31T10:06:53;12.00;99.90
45807;DHT22;31507;51.494;7.518;2023-03-31T10:09:23;12.00;99.90
45807;DHT22;31507;51.494;7.518;2023-03-31T10:12:05;11.90;99.90
45807;DHT22;31507;51.494;7.518;2023-03-31T10:14:44;11.90;99.90
45807;DHT22;31507;51.494;7.518;2023-03-31T10:17:22;11.70;99.90
45807;DHT22;31507;51.494;7.518;2023-03-31T10:19:50;11.70;99.90
45807;DHT22;31507;51.494;7.518;2023-03-31T10:24:46;11.50;99.90
45807;DHT22;31507;51.494;7.518;2023-03-31T10:27:33;11.60;99.90
45807;DHT22;31507;51.494;7.518;2023-03-31T10:30:02;11.60;99.90
45807;DHT22;31507;51.494;7.518;2023-03-31T10:32:33;11.60;99.90
45807;DHT22;31507;51.494;7.518;2023-03-31T10:37:34;11.90;99.90
45807;DHT22;31507;51.494;7.518;2023-03-31T10:40:19;12.00;99.90
45807;DHT22;31507;51.494;7.518;2023-03-31T10:42:48;12.10;99.90
45807;DHT22;31507;51.494;7.518;2023-03-31T10:47:48;12.20;99.90
45807;DHT22;31507;51.494;7.518;2023-03-31T10:50:15;12.30;99.90
45807;DHT22;31507;51.494;7.518;2023-03-31T10:52:46;12.30;99.90
45807;DHT22;31507;51.494;7.518;2023-03-31T10:55:13;12.20;99.90
45807;DHT22;31507;51.494;7.518;2023-03-31T10:58:05;12.10;99.90
45807;DHT22;31507;51.494;7.518;2023-03-31T11:00:57;11.90;99.90
45807;DHT22;31507;51.494;7.518;2023-03-31T11:03:46;11.80;99.90
45807;DHT22;31507;51.494;7.518;2023-03-31T11:06:31;11.80;99.90
45807;DHT22;31507;51.494;7.518;2023-03-31T11:09:55;12.00;99.90
45807;DHT22;31507;51.494;7.518;2023-03-31T11:12:32;12.20;99.90
45807;DHT22;31507;51.494;7.518;2023-03-31T11:20:40;13.00;99.90
45807;DHT22;31507;51.494;7.518;2023-03-31T11:23:22;13.60;99.90
45807;DHT22;31507;51.494;7.518;2023-03-31T11:28:25;15.00;99.90
45807;DHT22;31507;51.494;7.518;2023-03-31T11:34:11;15.20;99.90
45807;DHT22;31507;51.494;7.518;2023-03-31T11:42:20;14.40;99.90
45807;DHT22;31507;51.494;7.518;2023-03-31T11:44:53;13.90;99.90
45807;DHT22;31507;51.494;7.518;2023-03-31T11:47:30;13.30;99.90
45807;DHT22;31507;51.494;7.518;2023-03-31T11:50:00;11.60;99.90
45807;DHT22;31507;51.494;7.518;2023-03-31T11:52:34;10.50;99.90
45807;DHT22;31507;51.494;7.518;2023-03-31T11:58:03;9.80;99.90
45807;DHT22;31507;51.494;7.518;2023-03-31T12:00:41;9.80;99.90
45807;DHT22;31507;51.494;7.518;2023-03-31T12:03:37;9.90;99.90
45807;DHT22;31507;51.494;7.518;2023-03-31T12:06:13;10.00;99.90
45807;DHT22;31507;51.494;7.518;2023-03-31T12:09:06;10.00;99.90
45807;DHT22;31507;51.494;7.518;2023-03-31T12:11:51;10.10;99.90
45807;DHT22;31507;51.494;7.518;2023-03-31T12:16:50;10.30;99.90
45807;DHT22;31507;51.494;7.518;2023-03-31T12:19:27;10.50;99.90
45807;DHT22;31507;51.494;7.518;2023-03-31T12:22:14;10.60;99.90
45807;DHT22;31507;51.494;7.518;2023-03-31T12:24:41;10.80;99.90
45807;DHT22;31507;51.494;7.518;2023-03-31T12:27:36;11.00;99.90
45807;DHT22;31507;51.494;7.518;2023-03-31T12:30:15;11.30;99.90
45807;DHT22;31507;51.494;7.518;2023-03-31T12:33:02;11.50;99.90
45807;DHT22;31507;51.494;7.518;2023-03-31T12:52:07;12.50;99.90
45807;DHT22;31507;51.494;7.518;2023-03-31T12:57:34;12.40;99.90
45807;DHT22;31507;51.494;7.518;2023-03-31T13:00:25;12.40;99.90
45807;DHT22;31507;51.494;7.518;2023-03-31T13:05:55;12.30;99.90
45807;DHT22;31507;51.494;7.518;2023-03-31T13:11:15;12.10;99.90
45807;DHT22;31507;51.494;7.518;2023-03-31T13:13:57;12.00;99.90
45807;DHT22;31507;51.494;7.518;2023-03-31T13:16:24;11.90;99.90
45807;DHT22;31507;51.494;7.518;2023-03-31T13:18:53;11.80;99.90
45807;DHT22;31507;51.494;7.518;2023-03-31T13:21:19;11.80;99.90
45807;DHT22;31507;51.494;7.518;2023-03-31T13:23:45;11.80;99.90
45807;DHT22;31507;51.494;7.518;2023-03-31T13:26:39;11.90;99.90
45807;DHT22;31507;51.494;7.518;2023-03-31T13:34:31;12.00;99.90
45807;DHT22;31507;51.494;7.518;2023-03-31T13:37:36;12.10;99.90
45807;DHT22;31507;51.494;7.518;2023-03-31T13:45:40;12.70;99.90
45807;DHT22;31507;51.494;7.518;2023-03-31T13:48:27;12.70;99.90
45807;DHT22;31507;51.494;7.518;2023-03-31T13:56:08;12.00;99.90
45807;DHT22;31507;51.494;7.518;2023-03-31T14:01:34;11.80;99.90
45807;DHT22;31507;51.494;7.518;2023-03-31T14:04:12;11.90;99.90
45807;DHT22;31507;51.494;7.518;2023-03-31T14:06:43;12.10;99.90
45807;DHT22;31507;51.494;7.518;2023-03-31T14:09:21;12.30;99.90
45807;DHT22;31507;51.494;7.518;2023-03-31T14:11:48;12.50;99.90
45807;DHT22;31507;51.494;7.518;2023-03-31T14:14:16;12.60;99.90
45807;DHT22;31507;51.494;7.518;2023-03-31T14:16:54;12.80;99.90
45807;DHT22;31507;51.494;7.518;2023-03-31T14:22:57;13.00;99.90
45807;DHT22;31507;51.494;7.518;2023-03-31T14:30:29;12.90;99.90
45807;DHT22;31507;51.494;7.518;2023-03-31T14:33:19;12.80;99.90
45807;DHT22;31507;51.494;7.518;2023-03-31T14:38:29;13.10;99.90
45807;DHT22;31507;51.494;7.518;2023-03-31T14:40:56;13.40;99.90
45807;DHT22;31507;51.494;7.518;2023-03-31T14:43:37;13.60;99.90
45807;DHT22;31507;51.494;7.518;2023-03-31T14:46:07;13.60;99.90
45807;DHT22;31507;51.494;7.518;2023-03-31T14:48:35;13.60;99.90
45807;DHT22;31507;51.494;7.518;2023-03-31T14:51:08;13.60;99.90
45807;DHT22;31507;51.494;7.518;2023-03-31T14:53:35;13.50;99.90
45807;DHT22;31507;51.494;7.518;2023-03-31T14:56:07;13.50;99.90
45807;DHT22;31507;51.494;7.518;2023-03-31T14:58:37;13.40;99.90
45807;DHT22;31507;51.494;7.518;2023-03-31T15:01:05;13.40;99.90
45807;DHT22;31507;51.494;7.518;2023-03-31T15:03:33;13.40;99.90
45807;DHT22;31507;51.494;7.518;2023-03-31T15:06:02;13.50;99.90
45807;DHT22;31507;51.494;7.518;2023-03-31T15:08:30;13.60;99.90
45807;DHT22;31507;51.494;7.518;2023-03-31T15:10:59;13.60;99.90
45807;DHT22;31507;51.494;7.518;2023-03-31T15:13:34;13.60;99.90
45807;DHT22;31507;51.494;7.518;2023-03-31T15:19:03;13.60;99.90
45807;DHT22;31507;51.494;7.518;2023-03-31T15:21:31;13.60;99.90
45807;DHT22;31507;51.494;7.518;2023-03-31T15:23:58;13.60;99.90
45807;DHT22;31507;51.494;7.518;2023-03-31T15:26:30;13.50;99.90
45807;DHT22;31507;51.494;7.518;2023-03-31T15:29:21;13.30;99.90
45807;DHT22;31507;51.494;7.518;2023-03-31T15:31:48;13.10;99.90
45807;DHT22;31507;51.494;7.518;2023-03-31T15:34:34;13.00;99.90
45807;DHT22;31507;51.494;7.518;2023-03-31T15:37:01;12.90;99.90
45807;DHT22;31507;51.494;7.518;2023-03-31T15:39:31;12.80;99.90
45807;DHT22;31507;51.494;7.518;2023-03-31T15:41:59;12.80;99.90
45807;DHT22;31507;51.494;7.518;2023-03-31T15:44:34;12.70;99.90
45807;DHT22;31507;51.494;7.518;2023-03-31T15:47:05;12.60;99.90
45807;DHT22;31507;51.494;7.518;2023-03-31T15:49:32;12.50;99.90
45807;DHT22;31507;51.494;7.518;2023-03-31T15:51:57;12.30;99.90
45807;DHT22;31507;51.494;7.518;2023-03-31T15:56:56;11.50;99.90
45807;DHT22;31507;51.494;7.518;2023-03-31T15:59:24;11.20;99.90
45807;DHT22;31507;51.494;7.518;2023-03-31T16:01:52;10.80;99.90
45807;DHT22;31507;51.494;7.518;2023-03-31T16:04:18;10.60;99.90
45807;DHT22;31507;51.494;7.518;2023-03-31T16:07:04;10.40;99.90
45807;DHT22;31507;51.494;7.518;2023-03-31T16:09:49;10.40;99.90
45807;DHT22;31507;51.494;7.518;2023-03-31T16:12:18;10.30;99.90
45807;DHT22;31507;51.494;7.518;2023-03-31T16:14:50;10.30;99.90
45807;DHT22;31507;51.494;7.518;2023-03-31T16:20:05;10.30;99.90
45807;DHT22;31507;51.494;7.518;2023-03-31T16:22:36;10.30;99.90
45807;DHT22;31507;51.494;7.518;2023-03-31T16:25:08;10.30;99.90
45807;DHT22;31507;51.494;7.518;2023-03-31T16:27:42;10.30;99.90
45807;DHT22;31507;51.494;7.518;2023-03-31T16:30:15;10.40;99.90
45807;DHT22;31507;51.494;7.518;2023-03-31T16:33:09;10.40;99.90
45807;DHT22;31507;51.494;7.518;2023-03-31T16:35:40;10.50;99.90
45807;DHT22;31507;51.494;7.518;2023-03-31T16:38:08;10.50;99.90
45807;DHT22;31507;51.494;7.518;2023-03-31T16:40:36;10.60;99.90
45807;DHT22;31507;51.494;7.518;2023-03-31T16:43:18;10.60;99.90
45807;DHT22;31507;51.494;7.518;2023-03-31T16:48:19;10.70;99.90
45807;DHT22;31507;51.494;7.518;2023-03-31T16:50:46;10.70;99.90
45807;DHT22;31507;51.494;7.518;2023-03-31T16:53:13;10.70;99.90
45807;DHT22;31507;51.494;7.518;2023-03-31T16:55:39;10.70;99.90
45807;DHT22;31507;51.494;7.518;2023-03-31T16:58:05;10.80;99.90
45807;DHT22;31507;51.494;7.518;2023-03-31T17:00:33;10.80;99.90
45807;DHT22;31507;51.494;7.518;2023-03-31T17:03:05;10.70;99.90
45807;DHT22;31507;51.494;7.518;2023-03-31T17:05:31;10.80;99.90
45807;DHT22;31507;51.494;7.518;2023-03-31T17:08:02;10.80;99.90
45807;DHT22;31507;51.494;7.518;2023-03-31T17:10:27;10.80;99.90
45807;DHT22;31507;51.494;7.518;2023-03-31T17:12:53;10.80;99.90
45807;DHT22;31507;51.494;7.518;2023-03-31T17:15:19;10.80;99.90
45807;DHT22;31507;51.494;7.518;2023-03-31T17:17:45;10.80;99.90
45807;DHT22;31507;51.494;7.518;2023-03-31T17:20:10;10.80;99.90
45807;DHT22;31507;51.494;7.518;2023-03-31T17:22:36;10.80;99.90
45807;DHT22;31507;51.494;7.518;2023-03-31T17:25:03;10.80;99.90
45807;DHT22;31507;51.494;7.518;2023-03-31T17:27:29;10.80;99.90
45807;DHT22;31507;51.494;7.518;2023-03-31T17:29:56;10.80;99.90
45807;DHT22;31507;51.494;7.518;2023-03-31T17:32:22;10.70;99.90
45807;DHT22;31507;51.494;7.518;2023-03-31T17:34:48;10.80;99.90
45807;DHT22;31507;51.494;7.518;2023-03-31T17:37:15;10.70;99.90
45807;DHT22;31507;51.494;7.518;2023-03-31T17:39:41;10.70;99.90
45807;DHT22;31507;51.494;7.518;2023-03-31T17:42:08;10.70;99.90
45807;DHT22;31507;51.494;7.518;2023-03-31T17:44:34;10.70;99.90
45807;DHT22;31507;51.494;7.518;2023-03-31T17:47:00;10.70;99.90
45807;DHT22;31507;51.494;7.518;2023-03-31T17:49:25;10.70;99.90
45807;DHT22;31507;51.494;7.518;2023-03-31T17:51:51;10.70;99.90
45807;DHT22;31507;51.494;7.518;2023-03-31T17:54:17;10.60;99.90
45807;DHT22;31507;51.494;7.518;2023-03-31T17:56:43;10.60;99.90
45807;DHT22;31507;51.494;7.518;2023-03-31T17:59:10;10.60;99.90
45807;DHT22;31507;51.494;7.518;2023-03-31T18:01:36;10.50;99.90
45807;DHT22;31507;51.494;7.518;2023-03-31T18:04:02;10.50;99.90
45807;DHT22;31507;51.494;7.518;2023-03-31T18:06:30;10.50;99.90
45807;DHT22;31507;51.494;7.518;2023-03-31T18:08:56;10.50;99.90
45807;DHT22;31507;51.494;7.518;2023-03-31T18:11:22;10.40;99.90
45807;DHT22;31507;51.494;7.518;2023-03-31T18:13:48;10.30;99.90
45807;DHT22;31507;51.494;7.518;2023-03-31T18:16:13;10.30;99.90
45807;DHT22;31507;51.494;7.518;2023-03-31T18:18:40;10.20;99.90
45807;DHT22;31507;51.494;7.518;2023-03-31T18:21:08;10.10;99.90
45807;DHT22;31507;51.494;7.518;2023-03-31T18:23:35;10.00;99.90
45807;DHT22;31507;51.494;7.518;2023-03-31T18:26:04;9.90;99.90
45807;DHT22;31507;51.494;7.518;2023-03-31T18:28:29;9.80;99.90
45807;DHT22;31507;51.494;7.518;2023-03-31T18:30:55;9.70;99.90
45807;DHT22;31507;51.494;7.518;2023-03-31T18:33:20;9.70;99.90